createdAt,value
2017-10-01T00:00:58.333Z,13.60
2017-10-01T00:03:28.638Z,13.60
2017-10-01T00:05:58.122Z,13.60
2017-10-01T00:08:28.035Z,13.60
2017-10-01T00:10:57.744Z,13.60
2017-10-01T00:13:27.483Z,13.60
2017-10-01T00:15:57.172Z,13.60
2017-10-01T00:18:26.751Z,13.50
2017-10-01T00:20:56.445Z,13.50
2017-10-01T00:23:26.221Z,13.50
2017-10-01T00:25:55.938Z,13.50
2017-10-01T00:28:25.659Z,13.50
2017-10-01T00:30:56.114Z,13.50
2017-10-01T00:33:25.856Z,13.40
2017-10-01T00:35:55.530Z,13.50
2017-10-01T00:38:25.268Z,13.40
2017-10-01T00:40:54.949Z,13.40
2017-10-01T00:43:24.683Z,13.40
2017-10-01T00:45:54.038Z,13.30
2017-10-01T00:48:24.527Z,13.30
2017-10-01T00:50:53.583Z,13.30
2017-10-01T00:53:23.547Z,13.40
2017-10-01T00:55:52.553Z,13.30
2017-10-01T00:58:22.045Z,13.30
2017-10-01T01:00:51.230Z,13.30
2017-10-01T01:03:20.937Z,13.30
2017-10-01T01:05:50.323Z,13.40
2017-10-01T01:08:20.017Z,13.30
2017-10-01T01:10:49.007Z,13.30
2017-10-01T01:13:18.538Z,13.30
2017-10-01T01:15:47.948Z,13.20
2017-10-01T01:18:17.090Z,13.20
2017-10-01T01:20:46.158Z,13.20
2017-10-01T01:23:15.158Z,13.20
2017-10-01T01:25:44.175Z,13.20
2017-10-01T01:28:13.875Z,13.10
2017-10-01T01:30:43.446Z,13.10
2017-10-01T01:33:12.461Z,13.10
2017-10-01T01:35:42.187Z,13.10
2017-10-01T01:38:11.707Z,13.00
2017-10-01T01:40:40.706Z,13.00
2017-10-01T01:43:10.513Z,13.10
2017-10-01T01:45:39.523Z,13.00
2017-10-01T01:48:08.525Z,13.00
2017-10-01T01:50:37.357Z,13.00
2017-10-01T01:53:06.180Z,13.00
2017-10-01T01:55:36.108Z,13.00
2017-10-01T01:58:04.760Z,13.00
2017-10-01T02:00:33.903Z,13.00
2017-10-01T02:03:03.039Z,13.00
2017-10-01T02:05:32.072Z,12.90
2017-10-01T02:08:01.841Z,12.90
2017-10-01T02:10:31.242Z,12.90
2017-10-01T02:13:00.239Z,12.90
2017-10-01T02:15:29.038Z,12.80
2017-10-01T02:17:57.895Z,12.80
2017-10-01T02:20:27.279Z,12.80
2017-10-01T02:22:56.971Z,12.80
2017-10-01T02:25:27.449Z,12.90
2017-10-01T02:27:57.158Z,12.80
2017-10-01T02:30:26.527Z,12.80
2017-10-01T02:32:55.663Z,12.80
2017-10-01T02:35:25.152Z,12.80
2017-10-01T02:37:54.194Z,12.70
2017-10-01T02:40:23.210Z,12.70
2017-10-01T02:42:52.967Z,12.70
2017-10-01T02:45:22.146Z,12.70
2017-10-01T02:47:50.943Z,12.70
2017-10-01T02:50:20.270Z,12.70
2017-10-01T02:52:49.091Z,12.60
2017-10-01T02:55:18.873Z,12.70
2017-10-01T02:57:48.214Z,12.60
2017-10-01T03:00:18.038Z,12.60
2017-10-01T03:02:47.187Z,12.60
2017-10-01T03:05:16.574Z,12.60
2017-10-01T03:07:45.746Z,12.70
2017-10-01T03:10:15.297Z,12.70
2017-10-01T03:12:44.301Z,12.60
2017-10-01T03:15:13.126Z,12.60
2017-10-01T03:17:42.810Z,12.60
2017-10-01T03:20:12.201Z,12.60
2017-10-01T03:22:40.993Z,12.60
2017-10-01T03:25:10.013Z,12.60
2017-10-01T03:27:40.523Z,12.70
2017-10-01T03:30:10.092Z,12.70
2017-10-01T03:32:38.880Z,12.70
2017-10-01T03:35:07.934Z,12.70
2017-10-01T03:37:37.490Z,12.70
2017-10-01T03:40:06.483Z,12.70
2017-10-01T03:42:36.017Z,12.70
2017-10-01T03:45:04.823Z,12.70
2017-10-01T03:47:34.382Z,12.70
2017-10-01T03:50:03.216Z,12.70
2017-10-01T03:52:33.114Z,12.70
2017-10-01T03:55:02.719Z,12.70
2017-10-01T03:57:35.862Z,12.70
2017-10-01T04:00:05.231Z,12.60
2017-10-01T04:02:35.468Z,12.60
2017-10-01T04:05:06.165Z,12.70
2017-10-01T04:07:35.842Z,12.70
2017-10-01T04:10:05.556Z,12.60
2017-10-01T04:12:35.239Z,12.50
2017-10-01T04:15:04.970Z,12.50
2017-10-01T04:17:34.664Z,12.60
2017-10-01T04:20:04.400Z,12.60
2017-10-01T04:22:34.099Z,12.60
2017-10-01T04:25:03.816Z,12.60
2017-10-01T04:27:33.525Z,12.60
2017-10-01T04:30:03.246Z,12.60
2017-10-01T04:32:32.944Z,12.60
2017-10-01T04:35:02.703Z,12.60
2017-10-01T04:37:32.370Z,12.60
2017-10-01T04:40:02.085Z,12.70
2017-10-01T04:42:31.775Z,12.70
2017-10-01T04:45:01.537Z,12.70
2017-10-01T04:47:31.219Z,12.70
2017-10-01T04:50:00.958Z,12.70
2017-10-01T04:52:30.652Z,12.70
2017-10-01T04:55:00.575Z,12.70
2017-10-01T04:57:30.298Z,12.60
2017-10-01T04:59:59.999Z,12.60
2017-10-01T05:02:29.683Z,12.60
2017-10-01T05:04:59.421Z,12.60
2017-10-01T05:07:29.920Z,12.60
2017-10-01T05:09:59.679Z,12.60
2017-10-01T05:12:29.421Z,12.60
2017-10-01T05:14:59.118Z,12.60
2017-10-01T05:17:29.646Z,12.60
2017-10-01T05:19:59.893Z,12.60
2017-10-01T05:22:29.623Z,12.60
2017-10-01T05:24:59.338Z,12.60
2017-10-01T05:27:29.082Z,12.80
2017-10-01T05:29:58.803Z,12.70
2017-10-01T05:32:29.302Z,12.70
2017-10-01T05:34:59.002Z,12.70
2017-10-01T05:37:28.733Z,12.80
2017-10-01T05:39:58.444Z,12.80
2017-10-01T05:42:28.160Z,12.70
2017-10-01T05:44:57.833Z,12.70
2017-10-01T05:47:27.558Z,12.70
2017-10-01T05:49:57.253Z,12.70
2017-10-01T05:52:26.991Z,12.70
2017-10-01T05:54:56.687Z,12.70
2017-10-01T05:57:26.461Z,12.60
2017-10-01T05:59:56.394Z,12.60
2017-10-01T06:02:26.337Z,12.50
2017-10-01T06:04:56.790Z,12.40
2017-10-01T06:07:26.522Z,12.40
2017-10-01T06:09:56.294Z,12.40
2017-10-01T06:12:25.974Z,12.40
2017-10-01T06:14:55.699Z,12.40
2017-10-01T06:17:25.396Z,12.40
2017-10-01T06:19:55.118Z,12.50
2017-10-01T06:22:24.808Z,12.50
2017-10-01T06:24:54.536Z,12.50
2017-10-01T06:27:24.219Z,12.60
2017-10-01T06:29:53.996Z,12.60
2017-10-01T06:32:24.485Z,12.60
2017-10-01T06:34:54.175Z,12.60
2017-10-01T06:37:23.697Z,12.50
2017-10-01T06:39:53.279Z,12.50
2017-10-01T06:42:23.014Z,12.50
2017-10-01T06:44:52.682Z,12.50
2017-10-01T06:47:22.404Z,12.60
2017-10-01T06:49:51.726Z,12.70
2017-10-01T06:52:21.466Z,12.80
2017-10-01T06:54:51.767Z,12.80
2017-10-01T06:57:21.497Z,12.70
2017-10-01T06:59:51.973Z,12.60
2017-10-01T07:02:21.773Z,12.60
2017-10-01T07:04:51.452Z,12.60
2017-10-01T07:07:21.761Z,12.60
2017-10-01T07:09:51.445Z,12.60
2017-10-01T07:12:20.977Z,12.70
2017-10-01T07:14:50.666Z,12.70
2017-10-01T07:17:20.422Z,12.70
2017-10-01T07:19:50.949Z,12.80
2017-10-01T07:22:20.695Z,12.80
2017-10-01T07:24:50.183Z,12.90
2017-10-01T07:27:19.927Z,13.00
2017-10-01T07:29:49.612Z,13.10
2017-10-01T07:32:20.091Z,13.00
2017-10-01T07:34:49.831Z,13.00
2017-10-01T07:37:20.278Z,12.80
2017-10-01T07:39:49.651Z,12.80
2017-10-01T07:42:19.406Z,12.70
2017-10-01T07:44:49.116Z,12.70
2017-10-01T07:47:18.805Z,12.60
2017-10-01T07:49:49.290Z,12.20
2017-10-01T07:52:19.024Z,12.20
2017-10-01T07:54:48.702Z,12.20
2017-10-01T07:57:18.442Z,12.20
2017-10-01T07:59:48.123Z,12.20
2017-10-01T08:02:18.970Z,12.10
2017-10-01T08:04:48.641Z,12.10
2017-10-01T08:07:18.377Z,11.90
2017-10-01T08:09:53.446Z,11.90
2017-10-01T08:12:23.153Z,11.90
2017-10-01T08:14:53.608Z,12.00
2017-10-01T08:17:24.095Z,11.90
2017-10-01T08:19:53.779Z,11.90
2017-10-01T08:22:23.515Z,12.00
2017-10-01T08:24:53.234Z,12.00
2017-10-01T08:27:23.231Z,12.10
2017-10-01T08:29:52.950Z,12.20
2017-10-01T08:32:23.422Z,12.20
2017-10-01T08:34:53.107Z,12.10
2017-10-01T08:37:22.845Z,12.20
2017-10-01T08:39:53.281Z,12.20
2017-10-01T08:42:23.051Z,12.20
2017-10-01T08:44:52.745Z,12.20
2017-10-01T08:47:22.462Z,12.20
2017-10-01T08:49:52.162Z,12.20
2017-10-01T08:52:21.843Z,12.20
2017-10-01T08:54:51.567Z,12.20
2017-10-01T08:57:21.277Z,12.40
2017-10-01T08:59:51.006Z,12.50
2017-10-01T09:02:20.679Z,12.40
2017-10-01T09:04:50.406Z,12.50
2017-10-01T09:07:19.738Z,12.50
2017-10-01T09:09:49.438Z,12.50
2017-10-01T09:12:18.551Z,12.50
2017-10-01T09:14:48.233Z,12.60
2017-10-01T09:17:18.170Z,12.60
2017-10-01T09:19:47.495Z,12.70
2017-10-01T09:22:17.972Z,12.70
2017-10-01T09:24:47.662Z,12.60
2017-10-01T09:27:17.414Z,12.60
2017-10-01T09:29:47.083Z,12.60
2017-10-01T09:32:16.812Z,12.70
2017-10-01T09:34:46.303Z,12.80
2017-10-01T09:37:16.012Z,12.80
2017-10-01T09:39:45.692Z,12.80
2017-10-01T09:42:16.224Z,12.90
2017-10-01T09:44:47.004Z,13.00
2017-10-01T09:47:16.509Z,13.00
2017-10-01T09:49:46.213Z,13.00
2017-10-01T09:52:15.873Z,13.10
2017-10-01T09:54:46.479Z,13.30
2017-10-01T09:57:16.158Z,13.30
2017-10-01T09:59:45.881Z,13.30
2017-10-01T10:02:15.566Z,13.40
2017-10-01T10:04:45.287Z,13.30
2017-10-01T10:07:15.014Z,13.50
2017-10-01T10:09:44.750Z,13.50
2017-10-01T10:12:14.452Z,13.50
2017-10-01T10:14:44.125Z,13.50
2017-10-01T10:17:14.160Z,13.50
2017-10-01T10:19:43.844Z,13.60
2017-10-01T10:22:13.561Z,13.60
2017-10-01T10:24:43.234Z,13.70
2017-10-01T10:27:13.714Z,13.80
2017-10-01T10:29:43.181Z,13.80
2017-10-01T10:32:13.653Z,14.00
2017-10-01T10:34:43.351Z,14.00
2017-10-01T10:37:13.084Z,14.00
2017-10-01T10:39:42.767Z,14.00
2017-10-01T10:42:12.718Z,13.90
2017-10-01T10:44:42.412Z,14.00
2017-10-01T10:47:12.122Z,13.90
2017-10-01T10:49:41.807Z,14.00
2017-10-01T10:52:11.519Z,14.00
2017-10-01T10:54:41.210Z,14.00
2017-10-01T10:57:10.928Z,14.10
2017-10-01T10:59:40.939Z,14.20
2017-10-01T11:02:11.382Z,14.30
2017-10-01T11:04:41.113Z,14.30
2017-10-01T11:07:10.782Z,14.40
2017-10-01T11:09:41.260Z,14.30
2017-10-01T11:12:10.923Z,14.30
2017-10-01T11:14:41.398Z,14.30
2017-10-01T11:17:11.067Z,14.30
2017-10-01T11:19:41.543Z,14.20
2017-10-01T11:22:11.213Z,14.20
2017-10-01T11:24:41.022Z,14.10
2017-10-01T11:27:10.695Z,14.20
2017-10-01T11:29:40.209Z,14.20
2017-10-01T11:32:09.914Z,14.20
2017-10-01T11:34:39.862Z,14.20
2017-10-01T11:37:09.523Z,14.20
2017-10-01T11:39:39.991Z,14.10
2017-10-01T11:42:09.714Z,14.10
2017-10-01T11:44:39.388Z,14.10
2017-10-01T11:47:09.079Z,14.10
2017-10-01T11:49:39.510Z,14.20
2017-10-01T11:52:09.993Z,14.30
2017-10-01T11:54:39.668Z,14.20
2017-10-01T11:57:09.344Z,14.30
2017-10-01T11:59:39.047Z,14.20
2017-10-01T12:02:09.478Z,14.20
2017-10-01T12:04:39.339Z,14.20
2017-10-01T12:07:09.011Z,14.20
2017-10-01T12:09:38.710Z,14.20
2017-10-01T12:12:08.392Z,14.20
2017-10-01T12:14:38.098Z,14.30
2017-10-01T12:17:07.559Z,14.30
2017-10-01T12:19:37.346Z,14.30
2017-10-01T12:22:07.017Z,14.30
2017-10-01T12:24:36.722Z,14.30
2017-10-01T12:27:06.378Z,14.40
2017-10-01T12:29:36.910Z,14.50
2017-10-01T12:32:07.326Z,14.50
2017-10-01T12:34:37.057Z,14.40
2017-10-01T12:37:07.491Z,14.40
2017-10-01T12:39:37.952Z,14.40
2017-10-01T12:42:07.612Z,14.40
2017-10-01T12:44:37.590Z,14.40
2017-10-01T12:47:07.260Z,14.40
2017-10-01T12:49:36.988Z,14.40
2017-10-01T12:52:07.592Z,14.40
2017-10-01T12:54:38.053Z,14.40
2017-10-01T12:57:09.846Z,14.40
2017-10-01T12:59:39.569Z,14.40
2017-10-01T13:02:12.087Z,14.40
2017-10-01T13:04:41.783Z,14.50
2017-10-01T13:07:12.046Z,14.60
2017-10-01T13:09:44.851Z,14.50
2017-10-01T13:12:14.351Z,14.70
2017-10-01T13:14:44.581Z,14.80
2017-10-01T13:17:14.311Z,14.80
2017-10-01T13:19:43.970Z,14.90
2017-10-01T13:22:13.662Z,15.00
2017-10-01T13:24:45.063Z,15.00
2017-10-01T13:27:14.752Z,15.10
2017-10-01T13:29:44.422Z,15.00
2017-10-01T13:32:13.907Z,15.00
2017-10-01T13:34:45.554Z,14.90
2017-10-01T13:37:15.334Z,14.80
2017-10-01T13:39:45.052Z,14.70
2017-10-01T13:42:15.053Z,14.70
2017-10-01T13:44:44.902Z,14.70
2017-10-01T13:47:14.660Z,14.70
2017-10-01T13:49:45.121Z,14.80
2017-10-01T13:52:14.825Z,14.80
2017-10-01T13:54:44.721Z,14.80
2017-10-01T13:57:14.396Z,14.90
2017-10-01T13:59:44.101Z,14.80
2017-10-01T14:02:13.754Z,14.80
2017-10-01T14:04:43.462Z,14.70
2017-10-01T14:07:13.365Z,14.70
2017-10-01T14:09:43.084Z,14.80
2017-10-01T14:12:12.770Z,14.80
2017-10-01T14:14:42.494Z,15.00
2017-10-01T14:17:12.928Z,15.30
2017-10-01T14:19:42.882Z,15.30
2017-10-01T14:22:12.618Z,15.50
2017-10-01T14:24:42.399Z,15.50
2017-10-01T14:27:12.568Z,15.50
2017-10-01T14:29:43.069Z,15.50
2017-10-01T14:32:13.908Z,15.50
2017-10-01T14:34:44.435Z,15.50
2017-10-01T14:37:15.050Z,15.40
2017-10-01T14:39:45.498Z,15.30
2017-10-01T14:42:16.435Z,15.20
2017-10-01T14:44:47.130Z,15.20
2017-10-01T14:47:17.598Z,15.10
2017-10-01T14:49:47.289Z,15.10
2017-10-01T14:52:17.049Z,15.10
2017-10-01T14:54:46.759Z,15.00
2017-10-01T14:57:16.419Z,14.90
2017-10-01T14:59:46.361Z,14.90
2017-10-01T15:02:16.027Z,15.00
2017-10-01T15:04:46.507Z,15.00
2017-10-01T15:07:16.236Z,15.00
2017-10-01T15:09:45.890Z,15.10
2017-10-01T15:12:15.593Z,15.10
2017-10-01T15:14:45.317Z,15.00
2017-10-01T15:17:15.022Z,15.00
2017-10-01T15:19:44.717Z,15.00
2017-10-01T15:22:15.155Z,15.00
2017-10-01T15:24:44.980Z,15.00
2017-10-01T15:27:14.653Z,14.90
2017-10-01T15:29:44.337Z,14.90
2017-10-01T15:32:14.057Z,14.80
2017-10-01T15:34:43.714Z,14.90
2017-10-01T15:37:13.221Z,14.90
2017-10-01T15:39:42.888Z,14.90
2017-10-01T15:42:12.817Z,15.00
2017-10-01T15:44:43.299Z,15.00
2017-10-01T15:47:12.969Z,15.00
2017-10-01T15:49:43.429Z,15.10
2017-10-01T15:52:13.106Z,15.10
2017-10-01T15:54:43.355Z,14.80
2017-10-01T15:57:12.851Z,14.80
2017-10-01T15:59:42.542Z,14.70
2017-10-01T16:02:13.026Z,14.70
2017-10-01T16:04:42.746Z,14.70
2017-10-01T16:07:12.430Z,14.70
2017-10-01T16:09:42.107Z,14.70
2017-10-01T16:12:11.603Z,14.60
2017-10-01T16:14:42.074Z,14.70
2017-10-01T16:17:11.755Z,14.70
2017-10-01T16:19:41.455Z,14.70
2017-10-01T16:22:11.919Z,14.60
2017-10-01T16:24:41.575Z,14.60
2017-10-01T16:27:11.559Z,14.60
2017-10-01T16:29:41.229Z,14.60
2017-10-01T16:32:10.942Z,14.60
2017-10-01T16:34:40.415Z,14.60
2017-10-01T16:37:10.121Z,14.60
2017-10-01T16:39:39.776Z,14.60
2017-10-01T16:42:09.471Z,14.60
2017-10-01T16:44:39.146Z,14.60
2017-10-01T16:47:08.969Z,14.60
2017-10-01T16:49:39.414Z,14.60
2017-10-01T16:52:09.147Z,14.50
2017-10-01T16:54:38.857Z,14.60
2017-10-01T16:57:08.544Z,14.60
2017-10-01T16:59:38.597Z,14.50
2017-10-01T17:02:08.278Z,14.50
2017-10-01T17:04:38.177Z,14.50
2017-10-01T17:07:07.866Z,14.50
2017-10-01T17:09:38.388Z,14.40
2017-10-01T17:12:08.102Z,14.30
2017-10-01T17:14:37.835Z,14.30
2017-10-01T17:17:08.279Z,14.40
2017-10-01T17:19:37.985Z,14.30
2017-10-01T17:22:07.685Z,14.40
2017-10-01T17:24:41.007Z,14.30
2017-10-01T17:27:10.688Z,14.30
2017-10-01T17:29:41.188Z,14.30
2017-10-01T17:32:10.924Z,14.30
2017-10-01T17:34:41.609Z,14.40
2017-10-01T17:37:11.311Z,14.40
2017-10-01T17:39:41.248Z,14.40
2017-10-01T17:42:10.741Z,14.40
2017-10-01T17:44:40.463Z,14.30
2017-10-01T17:47:10.147Z,14.40
2017-10-01T17:49:39.867Z,14.40
2017-10-01T17:52:09.561Z,14.30
2017-10-01T17:54:39.311Z,14.30
2017-10-01T17:57:08.846Z,14.30
2017-10-01T17:59:39.325Z,14.30
2017-10-01T18:02:08.814Z,14.30
2017-10-01T18:04:38.560Z,14.20
2017-10-01T18:07:08.246Z,14.20
2017-10-01T18:09:38.083Z,14.20
2017-10-01T18:12:07.761Z,14.20
2017-10-01T18:14:37.509Z,14.20
2017-10-01T18:17:07.255Z,14.20
2017-10-01T18:19:37.714Z,14.20
2017-10-01T18:22:07.426Z,14.10
2017-10-01T18:24:37.460Z,14.10
2017-10-01T18:27:07.161Z,14.10
2017-10-01T18:29:36.914Z,14.10
2017-10-01T18:32:06.623Z,14.10
2017-10-01T18:34:36.150Z,14.10
2017-10-01T18:37:05.841Z,14.00
2017-10-01T18:39:36.658Z,13.90
2017-10-01T18:42:06.343Z,14.00
2017-10-01T18:44:36.059Z,13.90
2017-10-01T18:47:05.764Z,13.90
2017-10-01T18:49:35.493Z,13.90
2017-10-01T18:52:06.698Z,13.90
2017-10-01T18:54:36.407Z,13.80
2017-10-01T18:57:06.139Z,13.80
2017-10-01T18:59:35.821Z,13.80
2017-10-01T19:02:06.435Z,13.80
2017-10-01T19:04:36.897Z,13.70
2017-10-01T19:07:06.624Z,13.70
2017-10-01T19:09:36.350Z,13.80
2017-10-01T19:12:06.090Z,13.70
2017-10-01T19:14:36.546Z,13.70
2017-10-01T19:17:06.267Z,13.70
2017-10-01T19:19:35.959Z,13.70
2017-10-01T19:22:05.697Z,13.70
2017-10-01T19:24:35.402Z,13.70
2017-10-01T19:27:05.110Z,13.50
2017-10-01T19:29:34.802Z,13.50
2017-10-01T19:32:04.521Z,13.50
2017-10-01T19:34:34.342Z,13.50
2017-10-01T19:37:04.078Z,13.50
2017-10-01T19:39:33.843Z,13.40
2017-10-01T19:42:04.311Z,13.40
2017-10-01T19:44:34.051Z,13.30
2017-10-01T19:47:03.766Z,13.40
2017-10-01T19:49:33.501Z,13.40
2017-10-01T19:52:05.695Z,13.30
2017-10-01T19:54:35.441Z,13.30
2017-10-01T19:57:05.170Z,13.20
2017-10-01T19:59:34.744Z,13.20
2017-10-01T20:02:03.518Z,13.10
2017-10-01T20:04:33.757Z,13.10
2017-10-01T20:07:05.220Z,13.10
2017-10-01T20:09:36.786Z,13.00
2017-10-01T20:12:08.319Z,13.00
2017-10-01T20:14:38.946Z,13.10
2017-10-01T20:17:09.373Z,13.00
2017-10-01T20:19:39.708Z,13.00
2017-10-01T20:22:10.487Z,13.00
2017-10-01T20:24:40.239Z,12.90
2017-10-01T20:27:09.951Z,12.90
2017-10-01T20:29:39.641Z,12.90
2017-10-01T20:32:09.163Z,12.90
2017-10-01T20:34:38.890Z,12.90
2017-10-01T20:37:08.575Z,12.90
2017-10-01T20:39:38.208Z,12.90
2017-10-01T20:42:07.902Z,12.90
2017-10-01T20:44:37.605Z,12.90
2017-10-01T20:47:07.303Z,12.90
2017-10-01T20:49:37.037Z,12.80
2017-10-01T20:52:06.713Z,12.80
2017-10-01T20:54:36.445Z,12.80
2017-10-01T20:57:06.148Z,12.80
2017-10-01T20:59:35.874Z,12.70
2017-10-01T21:02:05.546Z,12.70
2017-10-01T21:04:36.006Z,12.70
2017-10-01T21:07:05.698Z,12.70
2017-10-01T21:09:35.430Z,12.70
2017-10-01T21:12:04.843Z,12.70
2017-10-01T21:14:34.594Z,12.70
2017-10-01T21:17:05.046Z,12.60
2017-10-01T21:19:34.758Z,12.60
2017-10-01T21:22:04.445Z,12.60
2017-10-01T21:24:34.934Z,12.60
2017-10-01T21:27:04.654Z,12.50
2017-10-01T21:29:34.366Z,12.50
2017-10-01T21:32:03.710Z,12.40
2017-10-01T21:34:34.232Z,12.40
2017-10-01T21:37:04.479Z,12.30
2017-10-01T21:39:34.214Z,12.30
2017-10-01T21:42:03.943Z,12.30
2017-10-01T21:44:34.435Z,12.30
2017-10-01T21:47:04.521Z,12.30
2017-10-01T21:49:35.140Z,12.30
2017-10-01T21:52:04.847Z,12.20
2017-10-01T21:54:34.420Z,12.30
2017-10-01T21:57:03.742Z,12.30
2017-10-01T21:59:34.649Z,12.30
2017-10-01T22:02:04.426Z,12.30
2017-10-01T22:04:34.710Z,12.30
2017-10-01T22:07:06.297Z,12.30
2017-10-01T22:09:36.780Z,12.30
2017-10-01T22:12:07.036Z,12.30
2017-10-01T22:14:37.026Z,12.30
2017-10-01T22:17:06.735Z,12.30
2017-10-01T22:19:36.450Z,12.30
2017-10-01T22:22:06.150Z,12.40
2017-10-01T22:24:35.855Z,12.40
2017-10-01T22:27:05.265Z,12.40
2017-10-01T22:29:35.161Z,12.40
2017-10-01T22:32:05.151Z,12.40
2017-10-01T22:34:36.879Z,12.40
2017-10-01T22:37:07.411Z,12.30
2017-10-01T22:39:37.812Z,12.30
2017-10-01T22:42:07.710Z,12.30
2017-10-01T22:44:39.136Z,12.20
2017-10-01T22:47:10.148Z,12.20
2017-10-01T22:49:40.488Z,12.20
2017-10-01T22:52:12.328Z,12.10
2017-10-01T22:54:42.054Z,12.10
2017-10-01T22:57:13.798Z,12.00
2017-10-01T22:59:44.688Z,12.00
2017-10-01T23:02:14.379Z,12.00
2017-10-01T23:04:45.012Z,11.90
2017-10-01T23:07:16.455Z,11.90
2017-10-01T23:09:46.511Z,11.90
2017-10-01T23:12:16.276Z,11.80
2017-10-01T23:14:46.032Z,11.80
2017-10-01T23:17:17.880Z,11.80
2017-10-01T23:19:48.115Z,11.80
2017-10-01T23:22:18.445Z,11.80
2017-10-01T23:24:48.479Z,11.80
2017-10-01T23:27:18.306Z,11.80
2017-10-01T23:29:49.570Z,11.80
2017-10-01T23:32:20.752Z,11.80
2017-10-01T23:34:50.521Z,11.80
2017-10-01T23:37:21.182Z,11.90
2017-10-01T23:39:51.771Z,11.80
2017-10-01T23:42:23.183Z,11.80
2017-10-01T23:44:53.099Z,11.80
2017-10-01T23:47:22.798Z,11.80
2017-10-01T23:49:52.600Z,11.80
2017-10-01T23:52:23.050Z,11.90
2017-10-01T23:54:52.933Z,11.90
2017-10-01T23:57:23.402Z,11.80
2017-10-01T23:59:53.106Z,11.80
